sensor_id;sensor_type;location;lat;lon;timestamp;P1;durP1;ratioP1;P2;durP2;ratioP2
16401;SDS011;8310;44.626;11.176;2022-10-17T00:02:01;20.15;;;17.13;;
16401;SDS011;8310;44.626;11.176;2022-10-17T00:04:28;20.48;;;16.45;;
16401;SDS011;8310;44.626;11.176;2022-10-17T00:06:57;21.02;;;16.58;;
16401;SDS011;8310;44.626;11.176;2022-10-17T00:09:25;22.38;;;17.02;;
16401;SDS011;8310;44.626;11.176;2022-10-17T00:11:53;19.42;;;16.88;;
16401;SDS011;8310;44.626;11.176;2022-10-17T00:14:21;19.20;;;16.35;;
16401;SDS011;8310;44.626;11.176;2022-10-17T00:16:48;19.73;;;16.90;;
16401;SDS011;8310;44.626;11.176;2022-10-17T00:19:16;20.15;;;15.50;;
16401;SDS011;8310;44.626;11.176;2022-10-17T00:21:44;20.23;;;16.45;;
16401;SDS011;8310;44.626;11.176;2022-10-17T00:24:13;23.02;;;16.90;;
16401;SDS011;8310;44.626;11.176;2022-10-17T00:26:41;20.80;;;16.25;;
16401;SDS011;8310;44.626;11.176;2022-10-17T00:29:09;18.65;;;15.68;;
16401;SDS011;8310;44.626;11.176;2022-10-17T00:31:36;17.80;;;15.50;;
16401;SDS011;8310;44.626;11.176;2022-10-17T00:34:04;17.65;;;15.82;;
16401;SDS011;8310;44.626;11.176;2022-10-17T00:36:32;19.30;;;15.90;;
16401;SDS011;8310;44.626;11.176;2022-10-17T00:39:00;17.30;;;15.18;;
16401;SDS011;8310;44.626;11.176;2022-10-17T00:41:29;17.90;;;14.88;;
16401;SDS011;8310;44.626;11.176;2022-10-17T00:44:00;18.77;;;15.45;;
16401;SDS011;8310;44.626;11.176;2022-10-17T00:46:30;19.27;;;16.02;;
16401;SDS011;8310;44.626;11.176;2022-10-17T00:49:00;17.77;;;15.18;;
16401;SDS011;8310;44.626;11.176;2022-10-17T00:51:32;16.88;;;14.52;;
16401;SDS011;8310;44.626;11.176;2022-10-17T00:54:02;16.27;;;14.57;;
16401;SDS011;8310;44.626;11.176;2022-10-17T00:56:33;18.85;;;14.57;;
16401;SDS011;8310;44.626;11.176;2022-10-17T00:59:01;16.77;;;14.63;;
16401;SDS011;8310;44.626;11.176;2022-10-17T01:01:29;18.33;;;15.55;;
16401;SDS011;8310;44.626;11.176;2022-10-17T01:03:56;21.05;;;14.93;;
16401;SDS011;8310;44.626;11.176;2022-10-17T01:06:24;17.17;;;15.40;;
16401;SDS011;8310;44.626;11.176;2022-10-17T01:08:51;17.35;;;14.57;;
16401;SDS011;8310;44.626;11.176;2022-10-17T01:11:21;15.95;;;14.35;;
16401;SDS011;8310;44.626;11.176;2022-10-17T01:14:01;16.63;;;14.85;;
16401;SDS011;8310;44.626;11.176;2022-10-17T01:16:35;16.85;;;15.05;;
16401;SDS011;8310;44.626;11.176;2022-10-17T01:19:12;18.23;;;15.80;;
16401;SDS011;8310;44.626;11.176;2022-10-17T01:22:00;16.83;;;15.13;;
16401;SDS011;8310;44.626;11.176;2022-10-17T01:24:46;17.45;;;15.55;;
16401;SDS011;8310;44.626;11.176;2022-10-17T01:27:35;16.67;;;14.88;;
16401;SDS011;8310;44.626;11.176;2022-10-17T01:30:25;16.63;;;14.88;;
16401;SDS011;8310;44.626;11.176;2022-10-17T01:33:12;17.83;;;15.90;;
16401;SDS011;8310;44.626;11.176;2022-10-17T01:35:45;18.15;;;15.65;;
16401;SDS011;8310;44.626;11.176;2022-10-17T01:38:19;22.85;;;15.48;;
16401;SDS011;8310;44.626;11.176;2022-10-17T01:40:51;18.55;;;15.52;;
16401;SDS011;8310;44.626;11.176;2022-10-17T01:43:28;16.35;;;14.65;;
16401;SDS011;8310;44.626;11.176;2022-10-17T01:46:00;17.25;;;14.90;;
16401;SDS011;8310;44.626;11.176;2022-10-17T01:48:33;17.30;;;15.45;;
16401;SDS011;8310;44.626;11.176;2022-10-17T01:51:05;16.75;;;14.98;;
16401;SDS011;8310;44.626;11.176;2022-10-17T01:53:38;18.65;;;15.15;;
16401;SDS011;8310;44.626;11.176;2022-10-17T01:56:10;19.52;;;15.93;;
16401;SDS011;8310;44.626;11.176;2022-10-17T01:58:42;18.48;;;16.13;;
16401;SDS011;8310;44.626;11.176;2022-10-17T02:01:14;18.27;;;15.05;;
16401;SDS011;8310;44.626;11.176;2022-10-17T02:03:46;20.10;;;15.43;;
16401;SDS011;8310;44.626;11.176;2022-10-17T02:06:16;16.83;;;14.85;;
16401;SDS011;8310;44.626;11.176;2022-10-17T02:08:44;17.70;;;14.85;;
16401;SDS011;8310;44.626;11.176;2022-10-17T02:11:14;17.40;;;14.68;;
16401;SDS011;8310;44.626;11.176;2022-10-17T02:13:51;17.02;;;14.02;;
16401;SDS011;8310;44.626;11.176;2022-10-17T02:16:33;17.00;;;13.98;;
16401;SDS011;8310;44.626;11.176;2022-10-17T02:19:16;16.75;;;14.35;;
16401;SDS011;8310;44.626;11.176;2022-10-17T02:21:57;17.95;;;14.43;;
16401;SDS011;8310;44.626;11.176;2022-10-17T02:24:32;16.42;;;14.45;;
16401;SDS011;8310;44.626;11.176;2022-10-17T02:27:05;16.90;;;13.93;;
16401;SDS011;8310;44.626;11.176;2022-10-17T02:29:38;16.15;;;13.95;;
16401;SDS011;8310;44.626;11.176;2022-10-17T02:32:13;17.02;;;14.55;;
16401;SDS011;8310;44.626;11.176;2022-10-17T02:34:49;16.90;;;15.10;;
16401;SDS011;8310;44.626;11.176;2022-10-17T02:37:20;15.07;;;13.48;;
16401;SDS011;8310;44.626;11.176;2022-10-17T02:39:52;15.10;;;13.10;;
16401;SDS011;8310;44.626;11.176;2022-10-17T02:42:21;18.17;;;14.52;;
16401;SDS011;8310;44.626;11.176;2022-10-17T02:44:50;17.58;;;13.85;;
16401;SDS011;8310;44.626;11.176;2022-10-17T02:47:22;15.02;;;13.52;;
16401;SDS011;8310;44.626;11.176;2022-10-17T02:49:55;15.30;;;13.85;;
16401;SDS011;8310;44.626;11.176;2022-10-17T02:52:26;14.77;;;13.07;;
16401;SDS011;8310;44.626;11.176;2022-10-17T02:55:00;15.20;;;13.50;;
16401;SDS011;8310;44.626;11.176;2022-10-17T02:57:33;15.85;;;13.18;;
16401;SDS011;8310;44.626;11.176;2022-10-17T03:00:04;13.95;;;12.48;;
16401;SDS011;8310;44.626;11.176;2022-10-17T03:02:38;13.68;;;12.32;;
16401;SDS011;8310;44.626;11.176;2022-10-17T03:05:09;15.35;;;12.88;;
16401;SDS011;8310;44.626;11.176;2022-10-17T03:07:38;15.65;;;12.77;;
16401;SDS011;8310;44.626;11.176;2022-10-17T03:10:05;15.80;;;13.13;;
16401;SDS011;8310;44.626;11.176;2022-10-17T03:12:33;15.32;;;13.35;;
16401;SDS011;8310;44.626;11.176;2022-10-17T03:15:01;14.80;;;13.30;;
16401;SDS011;8310;44.626;11.176;2022-10-17T03:17:28;14.35;;;12.90;;
16401;SDS011;8310;44.626;11.176;2022-10-17T03:19:56;14.20;;;12.77;;
16401;SDS011;8310;44.626;11.176;2022-10-17T03:22:26;17.20;;;14.30;;
16401;SDS011;8310;44.626;11.176;2022-10-17T03:24:53;14.93;;;13.35;;
16401;SDS011;8310;44.626;11.176;2022-10-17T03:27:21;14.38;;;12.45;;
16401;SDS011;8310;44.626;11.176;2022-10-17T03:29:49;14.35;;;12.85;;
16401;SDS011;8310;44.626;11.176;2022-10-17T03:32:17;15.70;;;13.63;;
16401;SDS011;8310;44.626;11.176;2022-10-17T03:34:44;16.33;;;13.00;;
16401;SDS011;8310;44.626;11.176;2022-10-17T03:37:16;15.50;;;13.05;;
16401;SDS011;8310;44.626;11.176;2022-10-17T03:39:45;13.98;;;12.52;;
16401;SDS011;8310;44.626;11.176;2022-10-17T03:42:13;14.80;;;13.27;;
16401;SDS011;8310;44.626;11.176;2022-10-17T03:44:41;14.07;;;12.63;;
16401;SDS011;8310;44.626;11.176;2022-10-17T03:47:08;13.52;;;12.20;;
16401;SDS011;8310;44.626;11.176;2022-10-17T03:49:36;15.40;;;13.50;;
16401;SDS011;8310;44.626;11.176;2022-10-17T03:52:04;14.93;;;12.82;;
16401;SDS011;8310;44.626;11.176;2022-10-17T03:54:31;14.18;;;12.55;;
16401;SDS011;8310;44.626;11.176;2022-10-17T03:57:00;16.48;;;13.38;;
16401;SDS011;8310;44.626;11.176;2022-10-17T03:59:28;15.23;;;13.05;;
16401;SDS011;8310;44.626;11.176;2022-10-17T04:01:56;14.38;;;12.98;;
16401;SDS011;8310;44.626;11.176;2022-10-17T04:04:25;15.45;;;12.45;;
16401;SDS011;8310;44.626;11.176;2022-10-17T04:06:56;16.33;;;14.13;;
16401;SDS011;8310;44.626;11.176;2022-10-17T04:09:23;16.27;;;13.20;;
16401;SDS011;8310;44.626;11.176;2022-10-17T04:11:51;15.93;;;13.55;;
16401;SDS011;8310;44.626;11.176;2022-10-17T04:14:20;14.90;;;13.15;;
16401;SDS011;8310;44.626;11.176;2022-10-17T04:16:47;17.35;;;15.55;;
16401;SDS011;8310;44.626;11.176;2022-10-17T04:19:15;20.63;;;15.45;;
16401;SDS011;8310;44.626;11.176;2022-10-17T04:21:42;14.43;;;12.88;;
16401;SDS011;8310;44.626;11.176;2022-10-17T04:24:10;14.63;;;13.07;;
16401;SDS011;8310;44.626;11.176;2022-10-17T04:26:38;14.55;;;13.13;;
16401;SDS011;8310;44.626;11.176;2022-10-17T04:29:05;15.68;;;13.18;;
16401;SDS011;8310;44.626;11.176;2022-10-17T04:31:34;15.82;;;13.50;;
16401;SDS011;8310;44.626;11.176;2022-10-17T04:34:02;15.68;;;12.95;;
16401;SDS011;8310;44.626;11.176;2022-10-17T04:36:30;15.02;;;13.27;;
16401;SDS011;8310;44.626;11.176;2022-10-17T04:38:58;15.15;;;13.68;;
16401;SDS011;8310;44.626;11.176;2022-10-17T04:41:26;15.88;;;13.20;;
16401;SDS011;8310;44.626;11.176;2022-10-17T04:43:54;15.25;;;13.48;;
16401;SDS011;8310;44.626;11.176;2022-10-17T04:46:22;14.27;;;12.20;;
16401;SDS011;8310;44.626;11.176;2022-10-17T04:48:52;15.38;;;12.70;;
16401;SDS011;8310;44.626;11.176;2022-10-17T04:51:20;18.63;;;13.07;;
16401;SDS011;8310;44.626;11.176;2022-10-17T04:53:47;15.52;;;13.38;;
16401;SDS011;8310;44.626;11.176;2022-10-17T04:56:15;17.33;;;13.48;;
16401;SDS011;8310;44.626;11.176;2022-10-17T04:58:44;19.00;;;12.80;;
16401;SDS011;8310;44.626;11.176;2022-10-17T05:01:20;21.42;;;13.00;;
16401;SDS011;8310;44.626;11.176;2022-10-17T05:03:49;15.35;;;13.73;;
16401;SDS011;8310;44.626;11.176;2022-10-17T05:06:18;15.65;;;13.93;;
16401;SDS011;8310;44.626;11.176;2022-10-17T05:08:47;15.13;;;13.57;;
16401;SDS011;8310;44.626;11.176;2022-10-17T05:11:16;15.80;;;13.95;;
16401;SDS011;8310;44.626;11.176;2022-10-17T05:13:48;16.67;;;13.82;;
16401;SDS011;8310;44.626;11.176;2022-10-17T05:16:17;19.15;;;14.80;;
16401;SDS011;8310;44.626;11.176;2022-10-17T05:18:46;19.02;;;15.05;;
16401;SDS011;8310;44.626;11.176;2022-10-17T05:21:14;18.35;;;15.02;;
16401;SDS011;8310;44.626;11.176;2022-10-17T05:23:43;17.75;;;15.32;;
16401;SDS011;8310;44.626;11.176;2022-10-17T05:26:11;17.48;;;13.90;;
16401;SDS011;8310;44.626;11.176;2022-10-17T05:28:39;18.90;;;15.65;;
16401;SDS011;8310;44.626;11.176;2022-10-17T05:31:07;16.42;;;14.73;;
16401;SDS011;8310;44.626;11.176;2022-10-17T05:33:36;19.60;;;15.25;;
16401;SDS011;8310;44.626;11.176;2022-10-17T05:36:05;18.13;;;15.50;;
16401;SDS011;8310;44.626;11.176;2022-10-17T05:38:33;18.00;;;15.18;;
16401;SDS011;8310;44.626;11.176;2022-10-17T05:41:03;18.85;;;16.30;;
16401;SDS011;8310;44.626;11.176;2022-10-17T05:43:32;18.02;;;15.95;;
16401;SDS011;8310;44.626;11.176;2022-10-17T05:46:02;19.05;;;15.18;;
16401;SDS011;8310;44.626;11.176;2022-10-17T05:48:30;18.48;;;15.10;;
16401;SDS011;8310;44.626;11.176;2022-10-17T05:50:58;20.38;;;14.60;;
16401;SDS011;8310;44.626;11.176;2022-10-17T05:53:28;18.30;;;15.00;;
16401;SDS011;8310;44.626;11.176;2022-10-17T05:55:56;22.33;;;15.85;;
16401;SDS011;8310;44.626;11.176;2022-10-17T05:58:26;18.88;;;14.95;;
16401;SDS011;8310;44.626;11.176;2022-10-17T06:00:56;18.88;;;15.45;;
16401;SDS011;8310;44.626;11.176;2022-10-17T06:03:24;19.27;;;15.60;;
16401;SDS011;8310;44.626;11.176;2022-10-17T06:05:52;18.52;;;14.63;;
16401;SDS011;8310;44.626;11.176;2022-10-17T06:08:20;19.90;;;15.50;;
16401;SDS011;8310;44.626;11.176;2022-10-17T06:10:48;17.70;;;15.68;;
16401;SDS011;8310;44.626;11.176;2022-10-17T06:13:17;37.83;;;25.17;;
16401;SDS011;8310;44.626;11.176;2022-10-17T06:15:46;48.00;;;27.10;;
16401;SDS011;8310;44.626;11.176;2022-10-17T06:18:16;45.65;;;28.50;;
16401;SDS011;8310;44.626;11.176;2022-10-17T06:20:44;59.33;;;31.13;;
16401;SDS011;8310;44.626;11.176;2022-10-17T06:23:12;62.28;;;31.88;;
16401;SDS011;8310;44.626;11.176;2022-10-17T06:25:40;59.30;;;31.27;;
16401;SDS011;8310;44.626;11.176;2022-10-17T06:28:08;58.83;;;31.65;;
16401;SDS011;8310;44.626;11.176;2022-10-17T06:30:36;59.78;;;32.60;;
16401;SDS011;8310;44.626;11.176;2022-10-17T06:33:08;73.28;;;37.40;;
16401;SDS011;8310;44.626;11.176;2022-10-17T06:35:36;91.10;;;40.95;;
16401;SDS011;8310;44.626;11.176;2022-10-17T06:38:07;90.10;;;42.60;;
16401;SDS011;8310;44.626;11.176;2022-10-17T06:40:34;68.03;;;34.65;;
16401;SDS011;8310;44.626;11.176;2022-10-17T06:43:02;71.38;;;35.58;;
16401;SDS011;8310;44.626;11.176;2022-10-17T06:45:29;72.68;;;38.17;;
16401;SDS011;8310;44.626;11.176;2022-10-17T06:47:57;78.50;;;37.20;;
16401;SDS011;8310;44.626;11.176;2022-10-17T06:50:26;79.10;;;37.78;;
16401;SDS011;8310;44.626;11.176;2022-10-17T06:52:54;80.65;;;37.30;;
16401;SDS011;8310;44.626;11.176;2022-10-17T06:55:22;84.95;;;37.03;;
16401;SDS011;8310;44.626;11.176;2022-10-17T06:57:49;89.88;;;39.10;;
16401;SDS011;8310;44.626;11.176;2022-10-17T07:00:19;98.18;;;40.35;;
16401;SDS011;8310;44.626;11.176;2022-10-17T07:02:53;79.35;;;39.20;;
16401;SDS011;8310;44.626;11.176;2022-10-17T07:05:21;75.95;;;36.60;;
16401;SDS011;8310;44.626;11.176;2022-10-17T07:07:50;73.20;;;35.45;;
16401;SDS011;8310;44.626;11.176;2022-10-17T07:10:17;66.55;;;33.63;;
16401;SDS011;8310;44.626;11.176;2022-10-17T07:12:45;71.88;;;35.53;;
16401;SDS011;8310;44.626;11.176;2022-10-17T07:15:12;75.97;;;37.28;;
16401;SDS011;8310;44.626;11.176;2022-10-17T07:17:39;80.15;;;39.28;;
16401;SDS011;8310;44.626;11.176;2022-10-17T07:20:07;74.60;;;37.90;;
16401;SDS011;8310;44.626;11.176;2022-10-17T07:22:35;69.72;;;35.38;;
16401;SDS011;8310;44.626;11.176;2022-10-17T07:25:05;52.50;;;30.73;;
16401;SDS011;8310;44.626;11.176;2022-10-17T07:27:34;44.40;;;30.27;;
16401;SDS011;8310;44.626;11.176;2022-10-17T07:30:01;50.88;;;30.77;;
16401;SDS011;8310;44.626;11.176;2022-10-17T07:32:29;42.30;;;30.02;;
16401;SDS011;8310;44.626;11.176;2022-10-17T07:34:57;41.83;;;29.60;;
16401;SDS011;8310;44.626;11.176;2022-10-17T07:37:24;46.65;;;29.48;;
16401;SDS011;8310;44.626;11.176;2022-10-17T07:39:52;41.88;;;31.40;;
16401;SDS011;8310;44.626;11.176;2022-10-17T07:42:22;43.17;;;29.95;;
16401;SDS011;8310;44.626;11.176;2022-10-17T07:44:49;41.90;;;27.95;;
16401;SDS011;8310;44.626;11.176;2022-10-17T07:47:17;43.43;;;29.43;;
16401;SDS011;8310;44.626;11.176;2022-10-17T07:49:44;36.97;;;27.77;;
16401;SDS011;8310;44.626;11.176;2022-10-17T07:52:12;40.78;;;28.65;;
16401;SDS011;8310;44.626;11.176;2022-10-17T07:54:41;45.20;;;30.02;;
16401;SDS011;8310;44.626;11.176;2022-10-17T07:57:08;39.72;;;28.85;;
16401;SDS011;8310;44.626;11.176;2022-10-17T07:59:38;39.17;;;28.20;;
16401;SDS011;8310;44.626;11.176;2022-10-17T08:02:06;42.90;;;29.80;;
16401;SDS011;8310;44.626;11.176;2022-10-17T08:04:34;44.33;;;30.77;;
16401;SDS011;8310;44.626;11.176;2022-10-17T08:07:01;42.10;;;29.17;;
16401;SDS011;8310;44.626;11.176;2022-10-17T08:09:29;38.35;;;29.30;;
16401;SDS011;8310;44.626;11.176;2022-10-17T08:11:56;39.92;;;28.23;;
16401;SDS011;8310;44.626;11.176;2022-10-17T08:14:25;41.40;;;29.48;;
16401;SDS011;8310;44.626;11.176;2022-10-17T08:16:54;44.05;;;30.27;;
16401;SDS011;8310;44.626;11.176;2022-10-17T08:19:22;40.17;;;30.15;;
16401;SDS011;8310;44.626;11.176;2022-10-17T08:21:50;43.70;;;31.00;;
16401;SDS011;8310;44.626;11.176;2022-10-17T08:24:18;45.95;;;30.40;;
16401;SDS011;8310;44.626;11.176;2022-10-17T08:26:46;42.97;;;30.45;;
16401;SDS011;8310;44.626;11.176;2022-10-17T08:29:14;37.75;;;29.17;;
16401;SDS011;8310;44.626;11.176;2022-10-17T08:31:42;43.85;;;32.08;;
16401;SDS011;8310;44.626;11.176;2022-10-17T08:34:14;42.67;;;30.40;;
16401;SDS011;8310;44.626;11.176;2022-10-17T08:36:42;44.08;;;30.27;;
16401;SDS011;8310;44.626;11.176;2022-10-17T08:39:09;41.95;;;29.67;;
16401;SDS011;8310;44.626;11.176;2022-10-17T08:41:44;42.75;;;31.52;;
16401;SDS011;8310;44.626;11.176;2022-10-17T08:44:23;45.35;;;31.77;;
16401;SDS011;8310;44.626;11.176;2022-10-17T08:46:58;47.70;;;34.33;;
16401;SDS011;8310;44.626;11.176;2022-10-17T08:49:33;44.20;;;31.30;;
16401;SDS011;8310;44.626;11.176;2022-10-17T08:52:10;47.78;;;32.88;;
16401;SDS011;8310;44.626;11.176;2022-10-17T08:54:44;45.17;;;31.48;;
16401;SDS011;8310;44.626;11.176;2022-10-17T08:57:13;46.72;;;31.20;;
16401;SDS011;8310;44.626;11.176;2022-10-17T08:59:42;46.67;;;33.08;;
16401;SDS011;8310;44.626;11.176;2022-10-17T09:05:21;53.80;;;33.72;;
16401;SDS011;8310;44.626;11.176;2022-10-17T09:07:56;40.72;;;29.38;;
16401;SDS011;8310;44.626;11.176;2022-10-17T09:10:33;51.67;;;30.35;;
16401;SDS011;8310;44.626;11.176;2022-10-17T09:13:14;41.85;;;29.60;;
16401;SDS011;8310;44.626;11.176;2022-10-17T09:15:52;40.03;;;29.88;;
16401;SDS011;8310;44.626;11.176;2022-10-17T09:18:39;38.67;;;29.33;;
16401;SDS011;8310;44.626;11.176;2022-10-17T09:21:16;39.58;;;28.90;;
16401;SDS011;8310;44.626;11.176;2022-10-17T09:23:47;39.80;;;30.55;;
16401;SDS011;8310;44.626;11.176;2022-10-17T09:26:17;38.53;;;28.88;;
16401;SDS011;8310;44.626;11.176;2022-10-17T09:28:46;39.67;;;30.05;;
16401;SDS011;8310;44.626;11.176;2022-10-17T09:31:19;38.53;;;29.02;;
16401;SDS011;8310;44.626;11.176;2022-10-17T09:33:50;38.95;;;29.58;;
16401;SDS011;8310;44.626;11.176;2022-10-17T09:36:23;37.10;;;27.88;;
16401;SDS011;8310;44.626;11.176;2022-10-17T09:38:53;37.53;;;28.20;;
16401;SDS011;8310;44.626;11.176;2022-10-17T09:41:25;33.97;;;27.65;;
16401;SDS011;8310;44.626;11.176;2022-10-17T09:43:56;36.65;;;27.83;;
16401;SDS011;8310;44.626;11.176;2022-10-17T09:46:26;38.92;;;28.08;;
16401;SDS011;8310;44.626;11.176;2022-10-17T09:48:59;39.05;;;28.42;;
16401;SDS011;8310;44.626;11.176;2022-10-17T09:51:32;35.80;;;26.17;;
16401;SDS011;8310;44.626;11.176;2022-10-17T09:54:00;32.63;;;25.73;;
16401;SDS011;8310;44.626;11.176;2022-10-17T09:56:30;38.03;;;28.33;;
16401;SDS011;8310;44.626;11.176;2022-10-17T09:59:30;36.88;;;26.50;;
16401;SDS011;8310;44.626;11.176;2022-10-17T10:04:56;30.48;;;25.52;;
16401;SDS011;8310;44.626;11.176;2022-10-17T10:07:26;32.28;;;25.73;;
16401;SDS011;8310;44.626;11.176;2022-10-17T10:09:55;32.42;;;25.92;;
16401;SDS011;8310;44.626;11.176;2022-10-17T10:12:26;36.92;;;27.63;;
16401;SDS011;8310;44.626;11.176;2022-10-17T10:14:56;33.30;;;24.77;;
16401;SDS011;8310;44.626;11.176;2022-10-17T10:17:28;28.65;;;24.08;;
16401;SDS011;8310;44.626;11.176;2022-10-17T10:20:23;30.67;;;25.85;;
16401;SDS011;8310;44.626;11.176;2022-10-17T10:23:04;31.27;;;26.00;;
16401;SDS011;8310;44.626;11.176;2022-10-17T10:25:34;35.67;;;25.85;;
16401;SDS011;8310;44.626;11.176;2022-10-17T10:28:03;31.77;;;25.33;;
16401;SDS011;8310;44.626;11.176;2022-10-17T10:30:36;32.20;;;25.73;;
16401;SDS011;8310;44.626;11.176;2022-10-17T10:33:04;31.20;;;24.42;;
16401;SDS011;8310;44.626;11.176;2022-10-17T10:35:32;29.73;;;24.55;;
16401;SDS011;8310;44.626;11.176;2022-10-17T10:38:02;29.35;;;25.35;;
16401;SDS011;8310;44.626;11.176;2022-10-17T10:40:37;29.05;;;24.55;;
16401;SDS011;8310;44.626;11.176;2022-10-17T10:43:19;29.65;;;24.90;;
16401;SDS011;8310;44.626;11.176;2022-10-17T10:45:49;33.97;;;24.95;;
16401;SDS011;8310;44.626;11.176;2022-10-17T10:48:19;31.13;;;23.50;;
16401;SDS011;8310;44.626;11.176;2022-10-17T10:50:48;30.27;;;24.23;;
16401;SDS011;8310;44.626;11.176;2022-10-17T10:53:28;28.70;;;24.10;;
16401;SDS011;8310;44.626;11.176;2022-10-17T10:55:59;28.88;;;23.85;;
16401;SDS011;8310;44.626;11.176;2022-10-17T10:58:46;31.63;;;25.13;;
16401;SDS011;8310;44.626;11.176;2022-10-17T11:01:28;34.38;;;24.70;;
16401;SDS011;8310;44.626;11.176;2022-10-17T11:04:05;30.70;;;24.27;;
16401;SDS011;8310;44.626;11.176;2022-10-17T11:06:42;29.95;;;23.92;;
16401;SDS011;8310;44.626;11.176;2022-10-17T11:09:13;29.85;;;22.67;;
16401;SDS011;8310;44.626;11.176;2022-10-17T11:11:53;28.73;;;25.35;;
16401;SDS011;8310;44.626;11.176;2022-10-17T11:14:31;29.95;;;22.95;;
16401;SDS011;8310;44.626;11.176;2022-10-17T11:17:07;30.52;;;23.73;;
16401;SDS011;8310;44.626;11.176;2022-10-17T11:19:42;30.98;;;23.40;;
16401;SDS011;8310;44.626;11.176;2022-10-17T11:22:31;28.77;;;23.42;;
16401;SDS011;8310;44.626;11.176;2022-10-17T11:25:04;27.00;;;22.70;;
16401;SDS011;8310;44.626;11.176;2022-10-17T11:27:40;31.75;;;25.20;;
16401;SDS011;8310;44.626;11.176;2022-10-17T11:30:10;27.83;;;22.48;;
16401;SDS011;8310;44.626;11.176;2022-10-17T11:32:41;30.40;;;23.77;;
16401;SDS011;8310;44.626;11.176;2022-10-17T11:35:15;27.45;;;23.35;;
16401;SDS011;8310;44.626;11.176;2022-10-17T11:37:48;29.08;;;24.52;;
16401;SDS011;8310;44.626;11.176;2022-10-17T11:40:23;29.98;;;25.30;;
16401;SDS011;8310;44.626;11.176;2022-10-17T11:42:57;30.48;;;24.25;;
16401;SDS011;8310;44.626;11.176;2022-10-17T11:45:28;54.15;;;26.55;;
16401;SDS011;8310;44.626;11.176;2022-10-17T11:48:00;26.58;;;22.83;;
16401;SDS011;8310;44.626;11.176;2022-10-17T11:50:33;29.13;;;22.42;;
16401;SDS011;8310;44.626;11.176;2022-10-17T11:53:07;30.65;;;22.33;;
16401;SDS011;8310;44.626;11.176;2022-10-17T11:55:40;26.30;;;21.98;;
16401;SDS011;8310;44.626;11.176;2022-10-17T11:58:14;27.75;;;21.95;;
16401;SDS011;8310;44.626;11.176;2022-10-17T12:00:52;30.40;;;24.50;;
16401;SDS011;8310;44.626;11.176;2022-10-17T12:03:29;27.65;;;22.58;;
16401;SDS011;8310;44.626;11.176;2022-10-17T12:06:08;30.08;;;23.52;;
16401;SDS011;8310;44.626;11.176;2022-10-17T12:08:45;25.30;;;21.33;;
16401;SDS011;8310;44.626;11.176;2022-10-17T12:11:24;25.92;;;21.17;;
16401;SDS011;8310;44.626;11.176;2022-10-17T12:13:59;27.70;;;23.58;;
16401;SDS011;8310;44.626;11.176;2022-10-17T12:16:37;28.52;;;23.02;;
16401;SDS011;8310;44.626;11.176;2022-10-17T12:19:18;27.08;;;22.38;;
16401;SDS011;8310;44.626;11.176;2022-10-17T12:21:58;23.83;;;20.70;;
16401;SDS011;8310;44.626;11.176;2022-10-17T12:24:37;21.20;;;19.00;;
16401;SDS011;8310;44.626;11.176;2022-10-17T12:30:02;24.67;;;19.83;;
16401;SDS011;8310;44.626;11.176;2022-10-17T12:32:31;21.92;;;18.88;;
16401;SDS011;8310;44.626;11.176;2022-10-17T12:34:59;20.83;;;18.33;;
16401;SDS011;8310;44.626;11.176;2022-10-17T12:40:54;21.58;;;18.58;;
16401;SDS011;8310;44.626;11.176;2022-10-17T12:49:40;19.77;;;15.93;;
16401;SDS011;8310;44.626;11.176;2022-10-17T12:52:22;18.95;;;16.33;;
16401;SDS011;8310;44.626;11.176;2022-10-17T12:55:14;18.05;;;16.15;;
16401;SDS011;8310;44.626;11.176;2022-10-17T12:57:49;22.13;;;17.55;;
16401;SDS011;8310;44.626;11.176;2022-10-17T13:00:21;22.20;;;18.15;;
16401;SDS011;8310;44.626;11.176;2022-10-17T13:03:01;23.23;;;18.42;;
16401;SDS011;8310;44.626;11.176;2022-10-17T13:05:33;18.83;;;16.38;;
16401;SDS011;8310;44.626;11.176;2022-10-17T13:08:04;21.10;;;18.45;;
16401;SDS011;8310;44.626;11.176;2022-10-17T13:10:35;25.25;;;17.13;;
16401;SDS011;8310;44.626;11.176;2022-10-17T13:13:09;19.00;;;14.88;;
16401;SDS011;8310;44.626;11.176;2022-10-17T13:15:44;16.70;;;14.85;;
16401;SDS011;8310;44.626;11.176;2022-10-17T13:18:16;15.73;;;13.77;;
16401;SDS011;8310;44.626;11.176;2022-10-17T13:20:53;18.48;;;14.35;;
16401;SDS011;8310;44.626;11.176;2022-10-17T13:23:22;17.23;;;15.25;;
16401;SDS011;8310;44.626;11.176;2022-10-17T13:26:00;18.92;;;15.73;;
16401;SDS011;8310;44.626;11.176;2022-10-17T13:28:34;17.33;;;15.20;;
16401;SDS011;8310;44.626;11.176;2022-10-17T13:31:02;16.20;;;14.63;;
16401;SDS011;8310;44.626;11.176;2022-10-17T13:33:31;16.10;;;14.40;;
16401;SDS011;8310;44.626;11.176;2022-10-17T13:36:01;17.02;;;15.23;;
16401;SDS011;8310;44.626;11.176;2022-10-17T13:38:31;14.82;;;13.20;;
16401;SDS011;8310;44.626;11.176;2022-10-17T13:41:00;14.43;;;12.57;;
16401;SDS011;8310;44.626;11.176;2022-10-17T13:43:29;13.88;;;12.45;;
16401;SDS011;8310;44.626;11.176;2022-10-17T13:46:01;12.63;;;10.90;;
16401;SDS011;8310;44.626;11.176;2022-10-17T13:48:31;13.57;;;11.57;;
16401;SDS011;8310;44.626;11.176;2022-10-17T13:51:01;12.52;;;11.25;;
16401;SDS011;8310;44.626;11.176;2022-10-17T13:53:31;12.35;;;10.82;;
16401;SDS011;8310;44.626;11.176;2022-10-17T13:56:00;13.93;;;11.00;;
16401;SDS011;8310;44.626;11.176;2022-10-17T13:58:38;17.50;;;11.40;;
16401;SDS011;8310;44.626;11.176;2022-10-17T14:01:08;12.00;;;10.70;;
16401;SDS011;8310;44.626;11.176;2022-10-17T14:03:39;13.23;;;11.10;;
16401;SDS011;8310;44.626;11.176;2022-10-17T14:06:13;12.00;;;10.55;;
16401;SDS011;8310;44.626;11.176;2022-10-17T14:08:51;12.70;;;11.38;;
16401;SDS011;8310;44.626;11.176;2022-10-17T14:11:22;11.20;;;10.02;;
16401;SDS011;8310;44.626;11.176;2022-10-17T14:13:53;11.57;;;10.38;;
16401;SDS011;8310;44.626;11.176;2022-10-17T14:16:23;10.98;;;9.88;;
16401;SDS011;8310;44.626;11.176;2022-10-17T14:18:52;13.88;;;12.48;;
16401;SDS011;8310;44.626;11.176;2022-10-17T14:21:22;14.13;;;12.65;;
16401;SDS011;8310;44.626;11.176;2022-10-17T14:23:51;12.88;;;11.57;;
16401;SDS011;8310;44.626;11.176;2022-10-17T14:26:45;11.23;;;10.18;;
16401;SDS011;8310;44.626;11.176;2022-10-17T14:29:17;11.77;;;10.65;;
16401;SDS011;8310;44.626;11.176;2022-10-17T14:31:49;12.05;;;10.85;;
16401;SDS011;8310;44.626;11.176;2022-10-17T14:34:26;12.55;;;11.20;;
16401;SDS011;8310;44.626;11.176;2022-10-17T14:36:56;12.23;;;11.07;;
16401;SDS011;8310;44.626;11.176;2022-10-17T14:39:25;12.60;;;10.75;;
16401;SDS011;8310;44.626;11.176;2022-10-17T14:41:54;11.70;;;10.50;;
16401;SDS011;8310;44.626;11.176;2022-10-17T14:44:25;11.52;;;10.32;;
16401;SDS011;8310;44.626;11.176;2022-10-17T14:46:57;12.10;;;10.68;;
16401;SDS011;8310;44.626;11.176;2022-10-17T14:49:31;13.88;;;11.20;;
16401;SDS011;8310;44.626;11.176;2022-10-17T14:54:50;11.25;;;10.15;;
16401;SDS011;8310;44.626;11.176;2022-10-17T14:57:21;12.00;;;10.80;;
16401;SDS011;8310;44.626;11.176;2022-10-17T14:59:51;12.15;;;11.02;;
16401;SDS011;8310;44.626;11.176;2022-10-17T15:02:25;13.18;;;10.07;;
16401;SDS011;8310;44.626;11.176;2022-10-17T15:04:54;10.85;;;9.85;;
16401;SDS011;8310;44.626;11.176;2022-10-17T15:07:22;14.52;;;10.15;;